Aérodrome :
LOGIN :

S'inscrire | Disclaimer

   EN    FR    IT 

 










Légende :    VFR   VFR Marginal   IFR   IFR Intensif   IFR Très Intensif
Visi : 
Plafond : 
>= 8 km
>= 3000ft
5 à 8 km
1000 à 3000 ft
1500m à 5 km
500 à 1000 ft
800 à 1500m
200 à 500 ft
< 800m
< 200 ft
Symboles :   Orages  Brouillard  Fortes neiges  Fortes précipitations  Vent > 20 kt
SIGMETs :   Divers  Orages  Givrage  Turbulence  Onde Orograph.  Cendres Volcan.






- Altitude de l'aérodrome : 659 ft
- Code IATA : LGG


EBLG - Liège

DERNIER METAR :
  • 070120Z 25013KT 9999 SCT017 BKN041 08/07 Q1009 NOSIG

METARs EXPIRÉS :
  • 070050Z 25014KT 9999 SCT013 BKN042 08/07 Q1009 NOSIG
  • 070020Z 25014KT 9999 BKN013 BKN022 08/07 Q1008 NOSIG
  • 062350Z 24014KT 9999 FEW008 BKN011 BKN024 08/07 Q1008 NOSIG
  • 062320Z 23017KT 9999 SCT008 BKN011 08/07 Q1008 NOSIG
  • 062250Z 22017KT 9999 SCT008 BKN012 BKN017 07/06 Q1007 NOSIG

TAF TAF EBLG
Valide du 07 à 00h jusqu'au 08 à 06h UTC


062320Z 0700/0806 24012KT 7000 SCT011
PROB30
TEMPO 0700/0705 BKN008
BECMG 0803/0805 20018G30KT
PROB40
TEMPO 0804/0806 BKN006



MET'MAP, la Météo Aéronautique d'un coup d'oeil ! - Copyright ORBIFLY Décembre 2007 - Disclaimer

ORBIFLY MET'MAP TEAM :

Programmation & Développement : Alexandra Zaïnal
Sur une idée originale de : Baudouin d'Aumeries
Assistance à la programmation : Marc-Olivier Méhu
Soutien technique & logistique : Manuel Goepfert

Contact : metmap@orbifly.com




SOURCES & CREDITS :

   NOAA